Time;durP1;ratioP1;P1;durP2;ratioP2;P2;SDS_P1;SDS_P2;PMS_P1;PMS_P2;Temp;Humidity;BMP_temperature;BMP_pressure;BME280_temperature;BME280_humidity;BME280_pressure;Samples;Min_cycle;Max_cycle;Signal;HPM_P1;HPM_P2
2021/04/13 00:01:12;;;;;;;4.13;3.05;;;;;;;8.81;45.33;101100.78;4956346;28;20037;-66
2021/04/13 00:03:40;;;;;;;6.00;3.15;;;;;;;8.78;45.39;101098.53;4957419;28;20027;-66
2021/04/13 00:06:07;;;;;;;5.82;3.40;;;;;;;8.78;45.33;101093.09;4956643;28;20034;-67
2021/04/13 00:08:32;;;;;;;5.50;3.15;;;;;;;8.77;45.50;101100.47;4957099;28;20031;-68
2021/04/13 00:11:03;;;;;;;5.40;3.05;;;;;;;8.77;45.44;101096.91;4957253;28;20027;-66
2021/04/13 00:13:29;;;;;;;6.00;2.97;;;;;;;8.73;45.57;101095.75;4957099;28;20022;-66
2021/04/13 00:16:05;;;;;;;6.18;2.90;;;;;;;8.52;45.64;101070.97;4957154;28;20027;-66
2021/04/13 00:18:34;;;;;;;3.67;3.05;;;;;;;8.64;46.20;101101.63;4957205;28;20050;-67
2021/04/13 00:21:04;;;;;;;5.55;3.17;;;;;;;8.57;45.85;101091.97;4957190;28;20538;-66
2021/04/13 00:23:30;;;;;;;8.85;3.70;;;;;;;8.46;46.27;101096.41;4956958;28;20019;-67
2021/04/13 00:25:59;;;;;;;6.63;3.63;;;;;;;8.38;46.19;101094.09;4957107;28;20027;-67
2021/04/13 00:28:28;;;;;;;5.47;3.03;;;;;;;8.32;46.58;101094.03;4956758;28;20058;-67
2021/04/13 00:30:57;;;;;;;5.22;3.00;;;;;;;8.28;46.64;101095.56;4956795;28;20109;-67
2021/04/13 00:33:27;;;;;;;4.10;3.20;;;;;;;8.27;46.85;101088.47;4957485;28;20019;-67
2021/04/13 00:36:11;;;;;;;10.07;3.55;;;;;;;8.15;46.90;101069.53;4960765;28;20031;-67
2021/04/13 00:38:45;;;;;;;6.15;3.55;;;;;;;8.28;47.22;101086.59;4960219;28;20106;-67
2021/04/13 00:41:31;;;;;;;5.18;2.80;;;;;;;8.27;46.94;101083.03;4960206;28;20143;-67
2021/04/13 00:44:07;;;;;;;7.30;3.22;;;;;;;8.24;47.36;101085.44;4958747;28;20078;-67
2021/04/13 00:46:46;;;;;;;5.68;3.35;;;;;;;8.22;47.30;101080.25;4959598;28;20432;-67
2021/04/13 00:49:13;;;;;;;5.50;3.10;;;;;;;8.17;47.52;101072.03;4960101;28;20038;-67
2021/04/13 00:51:47;;;;;;;4.38;3.08;;;;;;;8.17;47.82;101072.84;4959920;28;20031;-67
2021/04/13 00:54:21;;;;;;;6.32;3.45;;;;;;;8.14;47.98;101067.06;4960524;28;20025;-67
2021/04/13 00:56:47;;;;;;;8.63;3.53;;;;;;;8.06;47.94;101072.91;4959196;28;20015;-68
2021/04/13 00:59:19;;;;;;;6.78;3.15;;;;;;;8.01;48.06;101063.63;4956232;28;20038;-67
2021/04/13 01:02:05;;;;;;;5.18;3.17;;;;;;;7.97;48.22;101054.31;4958942;28;20392;-67
2021/04/13 01:05:01;;;;;;;5.47;3.38;;;;;;;7.91;48.06;101060.72;4960196;28;20165;-68
2021/04/13 01:07:36;;;;;;;5.60;3.38;;;;;;;7.88;48.56;101059.31;4947897;28;20062;-66
2021/04/13 01:10:30;;;;;;;4.88;3.30;;;;;;;7.90;48.38;101053.63;4959749;28;20023;-68
2021/04/13 01:13:10;;;;;;;4.88;3.13;;;;;;;7.76;48.36;101033.28;4958854;28;20027;-66
2021/04/13 01:15:37;;;;;;;4.22;3.08;;;;;;;7.86;48.45;101052.47;4958922;28;20055;-67
2021/04/13 01:18:13;;;;;;;6.15;3.20;;;;;;;7.81;48.73;101050.47;4959763;28;20031;-66
2021/04/13 01:21:02;;;;;;;4.20;3.20;;;;;;;7.81;48.58;101057.81;4959724;28;20591;-66
2021/04/13 01:23:36;;;;;;;6.68;3.22;;;;;;;7.68;48.92;101048.91;4949736;28;20042;-66
2021/04/13 01:26:04;;;;;;;4.13;3.22;;;;;;;7.70;49.30;101056.81;4959911;28;20050;-69
2021/04/13 01:28:34;;;;;;;5.53;3.58;;;;;;;7.46;49.32;101023.50;4959467;28;20051;-66
2021/04/13 01:31:16;;;;;;;6.75;4.03;;;;;;;7.70;49.50;101049.47;4958806;28;20035;-66
2021/04/13 01:33:47;;;;;;;7.45;4.05;;;;;;;7.69;49.03;101053.25;4959283;28;20023;-66
2021/04/13 01:36:28;;;;;;;4.68;3.38;;;;;;;7.70;49.22;101054.91;4959163;28;20035;-67
2021/04/13 01:39:17;;;;;;;6.53;4.15;;;;;;;7.66;49.42;101064.63;4956662;28;20411;-67
2021/04/13 01:42:00;;;;;;;5.18;3.60;;;;;;;7.58;49.64;101056.84;4959326;28;20055;-67
2021/04/13 01:44:47;;;;;;;6.25;4.05;;;;;;;7.54;49.78;101056.53;4957724;28;20031;-66
2021/04/13 01:47:16;;;;;;;8.32;4.20;;;;;;;7.52;49.49;101052.41;4958235;28;20042;-67
2021/04/13 01:50:05;;;;;;;6.68;4.40;;;;;;;7.47;49.62;101053.13;4958913;28;20035;-66
2021/04/13 01:52:40;;;;;;;5.18;3.85;;;;;;;7.35;50.00;101047.75;4956020;28;20050;-68
2021/04/13 01:55:13;;;;;;;10.40;5.77;;;;;;;7.36;50.06;101060.22;4957053;28;20035;-67
2021/04/13 01:58:01;;;;;;;7.55;4.75;;;;;;;7.32;49.94;101056.34;4959296;28;20034;-66
2021/04/13 02:00:42;;;;;;;7.53;4.60;;;;;;;7.27;50.31;101058.97;4958628;28;20031;-66
2021/04/13 02:03:28;;;;;;;8.25;5.13;;;;;;;7.24;50.33;101051.31;4958247;28;20042;-66
2021/04/13 02:05:59;;;;;;;6.93;5.22;;;;;;;7.14;50.54;101040.25;4958815;28;20035;-66
2021/04/13 02:08:32;;;;;;;8.45;5.50;;;;;;;7.20;50.76;101058.25;4957710;28;20059;-66
2021/04/13 02:11:07;;;;;;;8.07;5.38;;;;;;;7.15;50.66;101058.97;4958747;28;20063;-66
2021/04/13 02:13:51;;;;;;;8.52;5.70;;;;;;;7.14;50.77;101059.22;4959016;28;20026;-68
2021/04/13 02:16:27;;;;;;;9.35;6.18;;;;;;;7.14;50.96;101057.34;4958533;28;20614;-68
2021/04/13 02:18:54;;;;;;;11.35;7.18;;;;;;;7.15;50.81;101066.31;4958903;28;20038;-66
2021/04/13 02:21:30;;;;;;;10.70;7.10;;;;;;;7.14;51.03;101064.66;4958435;28;20027;-67
2021/04/13 02:24:00;;;;;;;;;;;;;;;7.06;50.81;101061.25;4958849;28;20508;-66
2021/04/13 02:26:26;;;;;;;11.40;6.28;;;;;;;6.80;50.74;101016.50;4958623;28;19922;-66
2021/04/13 02:28:52;;;;;;;10.18;6.45;;;;;;;6.93;51.14;101047.97;4958112;28;20055;-67
2021/04/13 02:31:48;;;;;;;12.40;6.75;;;;;;;6.80;51.15;101030.06;4958059;28;20031;-68
2021/04/13 02:34:18;;;;;;;9.40;6.35;;;;;;;6.90;51.39;101056.56;4958300;28;20074;-67
2021/04/13 02:37:00;;;;;;;8.23;6.07;;;;;;;6.87;51.22;101057.88;4958496;28;20023;-66
2021/04/13 02:39:31;;;;;;;9.82;6.50;;;;;;;6.87;51.36;101055.16;4950485;28;20058;-66
2021/04/13 02:42:00;;;;;;;10.57;6.40;;;;;;;6.88;51.50;101045.97;4954928;28;20062;-67
2021/04/13 02:44:26;;;;;;;9.90;6.13;;;;;;;6.83;51.75;101043.13;4958187;28;20019;-67
2021/04/13 02:46:56;;;;;;;10.73;5.80;;;;;;;6.85;51.45;101053.75;4964824;28;20078;-67
2021/04/13 02:49:24;;;;;;;8.77;6.05;;;;;;;6.70;51.79;101037.94;4958625;28;20387;-66
2021/04/13 02:52:07;;;;;;;7.57;5.35;;;;;;;6.81;51.63;101052.56;4958011;28;20019;-67
2021/04/13 02:54:44;;;;;;;9.68;6.07;;;;;;;6.79;51.68;101052.81;4957437;28;20023;-67
2021/04/13 02:57:21;;;;;;;9.60;5.50;;;;;;;6.78;51.83;101046.53;4956935;28;20100;-66
2021/04/13 02:59:46;;;;;;;8.63;5.63;;;;;;;6.77;51.83;101050.34;4957831;28;20023;-69
2021/04/13 03:02:25;;;;;;;8.88;5.85;;;;;;;6.81;52.17;101055.25;4957583;28;20027;-66
2021/04/13 03:04:52;;;;;;;9.88;5.97;;;;;;;6.83;51.88;101053.16;4958166;28;20073;-66
2021/04/13 03:07:22;;;;;;;11.57;6.18;;;;;;;6.80;52.04;101049.03;4958449;28;20023;-68
2021/04/13 03:09:51;;;;;;;8.15;5.63;;;;;;;6.75;52.25;101047.03;4957338;28;20027;-67
2021/04/13 03:12:18;;;;;;;8.20;5.50;;;;;;;6.77;51.93;101047.63;4957814;28;20066;-68
2021/04/13 03:14:49;;;;;;;7.43;5.45;;;;;;;6.79;51.89;101041.97;4957765;28;20027;-66
2021/04/13 03:17:26;;;;;;;6.85;5.60;;;;;;;6.80;51.86;101037.34;4956675;28;20027;-66
2021/04/13 03:20:01;;;;;;;7.05;5.65;;;;;;;6.80;52.40;101035.47;4957914;28;20031;-66
2021/04/13 03:22:27;;;;;;;6.83;5.53;;;;;;;6.73;51.90;101026.66;4957585;28;20424;-66
2021/04/13 03:24:54;;;;;;;8.95;5.60;;;;;;;6.80;51.96;101032.78;4957364;28;20154;-66
2021/04/13 03:27:23;;;;;;;7.82;5.30;;;;;;;6.81;52.19;101042.56;4957158;28;20023;-66
2021/04/13 03:30:11;;;;;;;8.02;5.15;;;;;;;6.81;52.36;101030.88;4957835;28;20027;-67
2021/04/13 03:32:57;;;;;;;7.70;5.75;;;;;;;6.74;52.37;101034.53;4955988;28;20039;-66
2021/04/13 03:35:25;;;;;;;10.45;6.20;;;;;;;6.68;52.31;101049.03;4953705;28;20035;-66
2021/04/13 03:37:53;;;;;;;8.88;5.35;;;;;;;6.63;52.31;101038.06;4957320;28;20150;-66
2021/04/13 03:40:22;;;;;;;9.35;5.07;;;;;;;6.60;52.59;101039.38;4957087;28;20031;-66
2021/04/13 03:42:53;;;;;;;7.85;5.60;;;;;;;6.53;52.75;101041.38;4958089;28;20046;-69
2021/04/13 03:45:19;;;;;;;8.07;5.22;;;;;;;6.39;52.66;101013.69;4959367;28;20024;-67
2021/04/13 03:47:46;;;;;;;6.93;5.40;;;;;;;6.32;52.55;100994.03;4963979;28;20035;-67
2021/04/13 03:50:23;;;;;;;7.60;5.50;;;;;;;6.51;52.69;101032.66;4956914;28;20027;-67
2021/04/13 03:53:03;;;;;;;7.15;5.07;;;;;;;6.43;52.70;101033.00;4957861;28;20110;-67
2021/04/13 03:55:29;;;;;;;6.57;4.80;;;;;;;6.29;52.79;101033.25;4956774;28;20400;-67
2021/04/13 03:57:54;;;;;;;8.65;5.68;;;;;;;6.31;52.85;101035.72;4957882;28;20019;-67
2021/04/13 04:00:23;;;;;;;9.05;5.28;;;;;;;6.32;53.00;101034.66;4956857;28;20121;-66
2021/04/13 04:02:50;;;;;;;7.68;5.28;;;;;;;6.32;53.20;101042.78;4957240;28;20027;-67
2021/04/13 04:05:19;;;;;;;8.40;4.82;;;;;;;6.31;53.41;101041.13;4957315;28;20536;-66
2021/04/13 04:07:54;;;;;;;8.43;4.88;;;;;;;6.27;53.40;101034.53;4957415;28;20488;-67
2021/04/13 04:10:29;;;;;;;10.02;5.72;;;;;;;6.22;53.43;101034.41;4958922;28;20415;-66
2021/04/13 04:13:04;;;;;;;7.47;5.22;;;;;;;6.20;53.50;101031.94;4960704;28;20523;-67
2021/04/13 04:16:05;;;;;;;7.85;5.25;;;;;;;6.23;53.61;101025.22;4957550;28;20522;-68
2021/04/13 04:18:36;;;;;;;6.03;5.32;;;;;;;6.24;53.53;101022.28;4946670;28;20484;-68
2021/04/13 04:21:25;;;;;;;9.68;5.20;;;;;;;6.25;53.02;101029.34;4957902;28;20035;-68
2021/04/13 04:23:56;;;;;;;6.57;4.95;;;;;;;6.11;53.18;101014.38;4956126;28;20574;-67
2021/04/13 04:26:31;;;;;;;8.50;5.65;;;;;;;6.05;53.45;101023.44;4959307;28;20043;-67
2021/04/13 04:29:15;;;;;;;8.70;5.70;;;;;;;6.00;53.63;101016.00;4960882;28;20043;-66
2021/04/13 04:31:42;;;;;;;10.13;6.03;;;;;;;5.93;53.94;101017.97;4956187;28;20071;-67
2021/04/13 04:34:13;;;;;;;10.75;6.30;;;;;;;5.94;54.26;101020.44;4960348;28;20458;-66
2021/04/13 04:36:43;;;;;;;7.97;5.53;;;;;;;5.98;54.33;101021.63;4959791;28;20114;-67
2021/04/13 04:39:22;;;;;;;8.23;6.35;;;;;;;6.01;54.26;101019.53;4960306;28;20051;-67
2021/04/13 04:41:49;;;;;;;9.40;6.72;;;;;;;6.02;54.04;101023.91;4960448;28;20031;-66
2021/04/13 04:44:26;;;;;;;9.13;5.45;;;;;;;6.00;54.20;101029.56;4959946;28;20127;-66
2021/04/13 04:46:59;;;;;;;7.57;5.53;;;;;;;5.78;53.87;101002.16;4967365;28;20039;-67
2021/04/13 04:49:26;;;;;;;9.30;5.90;;;;;;;5.92;54.03;101032.56;4960593;28;20103;-67
2021/04/13 04:51:53;;;;;;;8.77;6.22;;;;;;;5.87;54.45;101030.53;4960358;28;20081;-66
2021/04/13 04:54:21;;;;;;;9.80;6.47;;;;;;;5.85;54.32;101039.97;4959900;28;20050;-66
2021/04/13 04:56:47;;;;;;;11.05;7.15;;;;;;;5.77;54.54;101039.25;4960021;28;20035;-68
2021/04/13 04:59:12;;;;;;;11.85;7.53;;;;;;;5.74;54.89;101033.47;4960334;28;20057;-66
2021/04/13 05:01:38;;;;;;;10.60;7.55;;;;;;;5.73;54.76;101032.63;4959315;28;20066;-67
2021/04/13 05:04:04;;;;;;;10.18;7.30;;;;;;;5.75;54.69;101032.38;4960399;28;20078;-66
2021/04/13 05:06:29;;;;;;;9.80;7.95;;;;;;;5.78;55.17;101040.03;4960276;28;20038;-66
2021/04/13 05:08:55;;;;;;;9.85;7.47;;;;;;;5.78;54.83;101038.19;4959786;28;20085;-66
2021/04/13 05:11:22;;;;;;;11.23;7.60;;;;;;;5.72;55.02;101036.38;4960244;28;20035;-67
2021/04/13 05:13:47;;;;;;;11.15;7.80;;;;;;;5.68;54.87;101035.19;4958190;28;20155;-69
2021/04/13 05:16:13;;;;;;;11.48;7.65;;;;;;;5.65;55.30;101030.25;4959400;28;20039;-66
2021/04/13 05:18:38;;;;;;;10.05;7.50;;;;;;;5.64;55.16;101036.69;4959778;28;20038;-66
2021/04/13 05:21:04;;;;;;;10.98;7.35;;;;;;;5.67;55.00;101030.84;4959680;28;20046;-67
2021/04/13 05:23:30;;;;;;;10.82;7.40;;;;;;;5.68;54.91;101025.19;4959945;28;20027;-66
2021/04/13 05:25:55;;;;;;;8.90;7.28;;;;;;;5.71;55.04;101026.59;4959832;28;20043;-67
2021/04/13 05:28:22;;;;;;;13.40;7.90;;;;;;;5.56;55.03;101000.00;4958987;28;20043;-65
2021/04/13 05:30:50;;;;;;;11.77;7.43;;;;;;;5.73;55.30;101031.81;4959074;28;20059;-68
2021/04/13 05:33:16;;;;;;;9.93;6.80;;;;;;;5.74;54.91;101033.47;4959084;28;20023;-66
2021/04/13 05:35:42;;;;;;;11.73;7.60;;;;;;;5.60;55.31;101008.47;4959743;28;20123;-65
2021/04/13 05:38:14;;;;;;;10.95;7.50;;;;;;;5.71;55.33;101042.03;4957923;28;20031;-65
2021/04/13 05:40:40;;;;;;;9.45;6.95;;;;;;;5.73;55.20;101039.94;4959429;28;20039;-65
2021/04/13 05:43:06;;;;;;;12.10;6.78;;;;;;;5.76;55.08;101034.88;4959661;28;20031;-65
2021/04/13 05:45:34;;;;;;;12.77;7.50;;;;;;;5.79;55.10;101049.81;4962598;28;20081;-67
2021/04/13 05:48:01;;;;;;;15.50;7.90;;;;;;;5.79;55.07;101058.75;4966224;28;20118;-65
2021/04/13 05:50:30;;;;;;;11.80;7.85;;;;;;;5.82;55.08;101055.59;4958595;28;20050;-65
2021/04/13 05:52:56;;;;;;;15.38;7.95;;;;;;;5.81;54.96;101056.66;4959195;28;20065;-64
2021/04/13 05:55:22;;;;;;;16.17;7.82;;;;;;;5.84;55.23;101066.19;4958920;28;20031;-66
2021/04/13 05:57:51;;;;;;;10.45;7.20;;;;;;;5.82;55.34;101068.31;4959288;28;20055;-67
2021/04/13 06:00:19;;;;;;;11.43;8.65;;;;;;;5.81;55.22;101069.38;4959340;28;20031;-67
2021/04/13 06:02:45;;;;;;;14.50;7.72;;;;;;;5.61;55.23;101029.88;4958320;28;20031;-64
2021/04/13 06:05:14;;;;;;;16.25;8.50;;;;;;;5.82;55.45;101071.84;4958862;28;20035;-64
2021/04/13 06:07:40;;;;;;;18.67;7.82;;;;;;;5.81;55.37;101056.66;4958837;28;20031;-64
2021/04/13 06:10:08;;;;;;;12.40;7.80;;;;;;;5.88;55.59;101066.53;4958760;28;20468;-65
2021/04/13 06:12:34;;;;;;;12.35;7.93;;;;;;;5.93;55.53;101070.22;4958662;28;20110;-65
2021/04/13 06:14:59;;;;;;;9.43;7.60;;;;;;;5.97;55.31;101068.72;4957742;28;20119;-64
2021/04/13 06:17:25;;;;;;;16.95;8.30;;;;;;;6.02;55.16;101064.50;4958342;28;20067;-65
2021/04/13 06:19:50;;;;;;;15.57;8.43;;;;;;;6.02;55.46;101065.34;4959410;28;20031;-66
2021/04/13 06:22:16;;;;;;;12.82;8.15;;;;;;;5.97;55.24;101052.47;4958495;28;20030;-67
2021/04/13 06:24:42;;;;;;;11.80;7.97;;;;;;;6.09;55.44;101078.75;4958424;28;20050;-65
2021/04/13 06:27:08;;;;;;;10.70;8.27;;;;;;;6.11;54.87;101077.50;4957871;28;20052;-65
2021/04/13 06:29:34;;;;;;;16.10;7.53;;;;;;;6.14;55.23;101078.91;4958597;28;20051;-65
2021/04/13 06:32:00;;;;;;;15.82;7.95;;;;;;;6.24;55.41;101083.75;4957872;28;20038;-64
2021/04/13 06:34:25;;;;;;;10.13;7.95;;;;;;;6.29;55.10;101084.69;4958156;28;20047;-64
2021/04/13 06:36:51;;;;;;;10.63;7.00;;;;;;;6.35;55.32;101091.06;4961159;28;20027;-65
2021/04/13 06:39:16;;;;;;;9.82;6.70;;;;;;;6.38;54.79;101082.47;4958195;28;20034;-67
2021/04/13 06:42:02;;;;;;;16.25;6.80;;;;;;;6.41;54.37;101081.16;4957882;28;20042;-65
2021/04/13 06:45:07;;;;;;;11.38;7.03;;;;;;;6.41;54.62;101079.31;4958024;28;20039;-65
2021/04/13 06:48:10;;;;;;;11.20;6.75;;;;;;;6.43;54.46;101081.78;4957888;28;20041;-67
2021/04/13 06:50:57;;;;;;;10.85;6.47;;;;;;;6.40;53.71;101087.66;4956089;28;20027;-65
2021/04/13 06:53:47;;;;;;;9.25;6.45;;;;;;;6.39;53.48;101078.69;4953349;28;20388;-65
2021/04/13 06:56:28;;;;;;;14.35;7.03;;;;;;;6.39;53.17;101086.81;4950850;28;20031;-64
2021/04/13 06:59:24;;;;;;;10.98;6.95;;;;;;;6.43;53.25;101089.91;4947067;28;20039;-65
2021/04/13 07:01:57;;;;;;;18.70;7.45;;;;;;;6.43;53.49;101093.44;4955908;28;20046;-65
2021/04/13 07:04:31;;;;;;;14.00;8.32;;;;;;;6.45;53.58;101095.91;4958228;28;20039;-64
2021/04/13 07:07:06;;;;;;;12.27;7.82;;;;;;;6.48;53.57;101094.63;4958213;28;20043;-64
2021/04/13 07:09:41;;;;;;;15.00;7.88;;;;;;;6.43;53.90;101096.16;4957418;28;20094;-67
2021/04/13 07:12:11;;;;;;;10.93;7.60;;;;;;;6.43;54.03;101103.44;4957253;28;20039;-64
2021/04/13 07:14:46;;;;;;;10.50;7.53;;;;;;;6.42;54.58;101104.50;4957992;28;20039;-64
2021/04/13 07:17:23;;;;;;;11.03;7.57;;;;;;;6.38;54.46;101101.44;4957932;28;20028;-65
2021/04/13 07:20:07;;;;;;;13.90;7.53;;;;;;;6.37;54.35;101090.84;4957788;28;20031;-64
2021/04/13 07:22:40;;;;;;;14.45;8.07;;;;;;;6.39;54.56;101092.25;4952871;28;20438;-67
2021/04/13 07:25:19;;;;;;;16.27;8.18;;;;;;;6.44;54.40;101088.84;4952166;28;20408;-65
2021/04/13 07:27:51;;;;;;;9.68;6.90;;;;;;;6.49;54.12;101088.94;4956710;28;20571;-65
2021/04/13 07:30:22;;;;;;;10.85;6.93;;;;;;;6.55;54.32;101095.31;4957810;28;20042;-67
2021/04/13 07:32:52;;;;;;;11.07;6.85;;;;;;;6.66;53.99;101099.09;4958007;28;20027;-66
2021/04/13 07:35:18;;;;;;;15.00;7.13;;;;;;;6.48;53.77;101046.69;4958303;28;20121;-67
2021/04/13 07:37:49;;;;;;;9.18;6.47;;;;;;;6.87;53.68;101092.25;4956841;28;20031;-65
2021/04/13 07:40:22;;;;;;;7.85;6.32;;;;;;;6.94;53.10;101098.41;4957093;28;20511;-65
2021/04/13 07:43:01;;;;;;;11.57;6.25;;;;;;;6.69;52.76;101045.28;4957541;28;20106;-67
2021/04/13 07:45:49;;;;;;;11.10;6.70;;;;;;;7.09;52.62;101087.06;4964300;28;20038;-64
2021/04/13 07:48:21;;;;;;;9.88;6.60;;;;;;;7.03;52.51;101072.56;4968684;28;20028;-65
2021/04/13 07:51:02;;;;;;;10.60;6.40;;;;;;;7.20;52.24;101098.94;4961406;28;20154;-68
2021/04/13 07:54:04;;;;;;;8.82;6.30;;;;;;;7.29;52.11;101107.56;4961468;28;20028;-65
2021/04/13 07:56:47;;;;;;;12.32;7.22;;;;;;;7.33;51.65;101109.56;4960756;28;20054;-65
2021/04/13 07:59:33;;;;;;;12.57;7.22;;;;;;;7.36;51.53;101106.34;4961203;28;20023;-65
2021/04/13 08:01:59;;;;;;;11.02;7.03;;;;;;;7.42;51.35;101092.91;4960289;28;20069;-65
2021/04/13 08:04:27;;;;;;;9.60;6.10;;;;;;;7.26;50.55;101060.03;4961502;28;20036;-65
2021/04/13 08:06:59;;;;;;;11.10;6.55;;;;;;;7.56;50.73;101095.06;4960649;28;20035;-65
2021/04/13 08:09:39;;;;;;;11.75;6.72;;;;;;;7.47;50.57;101050.41;4961337;28;20027;-64
2021/04/13 08:12:09;;;;;;;12.80;6.75;;;;;;;7.78;50.48;101085.44;4961061;28;20095;-65
2021/04/13 08:14:45;;;;;;;9.13;6.30;;;;;;;7.87;50.31;101086.69;4960836;28;20184;-65
2021/04/13 08:17:15;;;;;;;10.13;6.20;;;;;;;8.00;50.15;101078.25;4960358;28;20031;-65
2021/04/13 08:19:42;;;;;;;10.30;5.78;;;;;;;8.12;49.75;101074.63;4960784;28;20488;-66
2021/04/13 08:22:18;;;;;;;11.00;6.03;;;;;;;8.27;48.95;101076.81;4960912;28;20085;-65
2021/04/13 08:24:43;;;;;;;;;;;;;;;8.33;49.20;101079.38;4960800;28;20078;-65
2021/04/13 08:27:12;;;;;;;11.67;6.30;;;;;;;8.42;48.86;101073.53;4960675;28;20009;-65
2021/04/13 08:29:53;;;;;;;9.27;5.55;;;;;;;8.54;48.02;101066.13;4960607;28;20061;-65
2021/04/13 08:32:51;;;;;;;8.68;5.78;;;;;;;8.64;48.00;101065.44;4956137;28;20027;-65
2021/04/13 08:35:33;;;;;;;10.05;5.95;;;;;;;8.73;47.67;101063.13;4958434;28;20028;-67
2021/04/13 08:38:28;;;;;;;5.53;4.75;;;;;;;8.83;47.53;101068.72;4962452;28;20042;-65
2021/04/13 08:41:11;;;;;;;5.90;4.40;;;;;;;8.93;46.97;101065.31;4971877;28;20033;-65
2021/04/13 08:43:45;;;;;;;5.80;3.40;;;;;;;9.02;46.29;101065.69;4961784;28;20023;-66
2021/04/13 08:46:39;;;;;;;9.60;5.07;;;;;;;9.12;45.70;101068.56;4964557;28;20031;-65
2021/04/13 08:49:30;;;;;;;6.68;3.90;;;;;;;9.20;45.18;101068.13;4960422;28;20031;-66
2021/04/13 08:52:37;;;;;;;6.55;3.92;;;;;;;9.26;44.90;101066.28;4960922;28;20023;-65
2021/04/13 08:55:40;;;;;;;4.80;3.40;;;;;;;9.27;44.20;101060.59;4944220;28;20031;-66
2021/04/13 08:58:16;;;;;;;6.18;3.75;;;;;;;9.25;44.51;101057.31;4959165;28;20477;-65
2021/04/13 09:00:55;;;;;;;7.57;3.50;;;;;;;9.29;44.42;101044.84;4958971;28;20408;-66
2021/04/13 09:03:24;;;;;;;7.40;3.45;;;;;;;9.27;44.31;101041.53;4959598;28;20027;-65
2021/04/13 09:06:12;;;;;;;7.28;3.45;;;;;;;9.45;44.43;101047.72;4957401;28;20019;-65
2021/04/13 09:08:50;;;;;;;5.40;4.05;;;;;;;9.55;44.39;101049.72;4960049;28;20034;-65
2021/04/13 09:11:23;;;;;;;5.28;4.10;;;;;;;9.63;43.89;101054.72;4960277;28;20431;-65
2021/04/13 09:14:30;;;;;;;6.95;3.53;;;;;;;9.72;43.83;101050.47;4959262;28;20023;-65
2021/04/13 09:17:02;;;;;;;5.72;3.80;;;;;;;9.74;43.58;101047.50;4948223;28;20039;-66
2021/04/13 09:19:48;;;;;;;4.35;3.38;;;;;;;9.84;42.89;101050.31;4960309;28;20039;-65
2021/04/13 09:22:28;;;;;;;5.45;3.75;;;;;;;9.74;42.57;101023.81;4960976;28;20015;-65
2021/04/13 09:25:06;;;;;;;5.55;3.53;;;;;;;9.74;42.79;101014.81;4959782;28;20046;-65
2021/04/13 09:27:37;;;;;;;4.78;3.20;;;;;;;10.01;41.90;101044.75;4959100;28;20059;-67
2021/04/13 09:30:38;;;;;;;4.82;3.47;;;;;;;10.10;41.80;101053.28;4959570;28;20034;-66
2021/04/13 09:33:13;;;;;;;4.22;3.03;;;;;;;10.14;41.40;101043.50;4956871;28;20034;-65
2021/04/13 09:35:45;;;;;;;5.13;3.92;;;;;;;10.20;41.75;101033.47;4960792;28;20035;-67
2021/04/13 09:38:45;;;;;;;7.57;4.18;;;;;;;10.28;41.28;101041.19;4960098;28;20519;-67
2021/04/13 09:41:16;;;;;;;6.70;3.92;;;;;;;10.26;40.90;101046.06;4970921;28;20031;-66
2021/04/13 09:44:05;;;;;;;6.93;4.07;;;;;;;10.23;41.11;101031.06;4966689;28;20035;-67
2021/04/13 09:46:49;;;;;;;6.15;3.92;;;;;;;10.29;41.43;101029.16;4964255;28;20047;-66
2021/04/13 09:49:23;;;;;;;7.90;4.30;;;;;;;10.37;41.01;101028.72;4958278;28;20028;-65
2021/04/13 09:52:06;;;;;;;7.55;5.20;;;;;;;10.49;41.05;101028.53;4962895;28;20029;-66
2021/04/13 09:54:39;;;;;;;12.93;4.88;;;;;;;10.58;40.17;101028.06;4959306;28;20113;-67
2021/04/13 09:57:32;;;;;;;8.05;4.68;;;;;;;10.65;39.85;101020.47;4959357;28;20023;-65
2021/04/13 10:00:25;;;;;;;4.40;3.65;;;;;;;10.67;39.43;101008.19;4948284;28;20399;-66
2021/04/13 10:03:28;;;;;;;7.30;4.82;;;;;;;10.73;39.40;101017.22;4958935;28;20445;-68
2021/04/13 10:05:58;;;;;;;7.78;5.22;;;;;;;10.63;38.91;100989.91;4958895;28;20035;-66
2021/04/13 10:08:33;;;;;;;8.77;4.97;;;;;;;10.79;38.38;101010.72;4958190;28;20031;-66
2021/04/13 10:11:08;;;;;;;8.77;5.50;;;;;;;10.87;38.15;101003.91;4958509;28;20111;-65
2021/04/13 10:13:55;;;;;;;10.55;6.50;;;;;;;10.95;38.21;101003.41;4956823;28;20046;-65
2021/04/13 10:16:48;;;;;;;8.30;6.47;;;;;;;11.01;38.11;100991.44;4957577;28;20395;-67
2021/04/13 10:19:35;;;;;;;10.40;6.10;;;;;;;11.09;37.73;100990.09;4958122;28;20023;-65
2021/04/13 10:22:03;;;;;;;10.80;6.90;;;;;;;11.17;37.50;100994.22;4956165;28;20031;-67
2021/04/13 10:25:01;;;;;;;10.20;6.85;;;;;;;11.27;37.08;100987.97;4962419;28;20082;-66
2021/04/13 10:27:45;;;;;;;9.65;6.22;;;;;;;11.30;37.40;100985.53;4968582;28;20082;-69
2021/04/13 10:30:41;;;;;;;8.23;5.90;;;;;;;11.43;36.63;100978.72;4964921;28;20440;-66
2021/04/13 10:33:40;;;;;;;11.88;7.13;;;;;;;11.47;36.56;100970.81;4948278;28;20066;-67
2021/04/13 10:36:14;;;;;;;14.65;7.57;;;;;;;11.54;36.75;100963.19;4956286;28;20042;-66
2021/04/13 10:38:49;;;;;;;11.73;7.60;;;;;;;11.61;36.56;100962.91;4957650;28;20171;-65
2021/04/13 10:41:43;;;;;;;13.27;7.10;;;;;;;11.75;36.81;100963.22;4964027;28;20115;-66
2021/04/13 10:44:36;;;;;;;11.52;6.72;;;;;;;11.84;35.92;100949.81;4960331;28;20027;-66
2021/04/13 10:47:24;;;;;;;12.30;7.38;;;;;;;11.91;35.53;100943.00;4962691;28;20057;-68
2021/04/13 10:50:26;;;;;;;10.48;7.43;;;;;;;11.99;35.94;100944.38;4967717;28;20027;-67
2021/04/13 10:53:10;;;;;;;12.43;7.18;;;;;;;12.09;35.85;100944.34;4961623;28;20110;-66
2021/04/13 10:55:57;;;;;;;10.98;7.03;;;;;;;12.19;35.65;100929.03;4958750;28;20069;-67
2021/04/13 10:59:19;;;;;;;13.43;8.00;;;;;;;12.30;35.59;100933.41;4947684;28;20032;-65
2021/04/13 11:02:33;;;;;;;13.13;6.97;;;;;;;12.38;35.84;100930.09;4941336;29;20074;-66
2021/04/13 11:05:07;;;;;;;11.40;7.65;;;;;;;12.48;35.32;100928.44;4937019;29;20055;-66
2021/04/13 11:07:41;;;;;;;11.43;7.13;;;;;;;12.55;34.42;100921.56;4956705;28;20545;-68
2021/04/13 11:10:29;;;;;;;11.73;7.70;;;;;;;12.66;34.09;100924.25;4957606;28;20058;-66
2021/04/13 11:13:15;;;;;;;11.45;7.25;;;;;;;12.73;33.99;100913.84;4956502;28;20058;-67
2021/04/13 11:16:01;;;;;;;10.48;5.93;;;;;;;12.83;34.53;100915.69;4956795;28;20057;-66
2021/04/13 11:18:57;;;;;;;11.98;6.78;;;;;;;12.95;34.32;100899.78;4949545;28;20097;-66
2021/04/13 11:21:31;;;;;;;10.27;6.22;;;;;;;13.04;33.91;100899.97;4951876;28;20037;-67
2021/04/13 11:24:08;;;;;;;7.63;5.63;;;;;;;13.13;33.48;100901.03;4958044;28;20031;-67
2021/04/13 11:26:51;;;;;;;7.43;4.80;;;;;;;13.21;33.12;100886.72;4958044;28;20094;-67
2021/04/13 11:29:35;;;;;;;6.47;4.40;;;;;;;13.27;32.76;100895.75;4946130;28;20055;-67
2021/04/13 11:32:13;;;;;;;7.20;4.45;;;;;;;13.35;32.92;100891.56;4957866;28;20042;-67
2021/04/13 11:35:07;;;;;;;6.30;3.80;;;;;;;13.46;32.77;100887.69;4958132;28;20023;-67
2021/04/13 11:38:11;;;;;;;4.47;3.25;;;;;;;13.59;32.71;100882.66;4947421;28;20031;-68
2021/04/13 11:40:52;;;;;;;5.32;2.97;;;;;;;13.71;32.81;100879.53;4957647;28;20492;-66
2021/04/13 11:43:23;;;;;;;4.53;2.30;;;;;;;13.62;32.64;100847.28;4956975;28;20038;-68
2021/04/13 11:46:10;;;;;;;2.97;2.00;;;;;;;13.89;31.96;100878.81;4957718;28;20038;-67
2021/04/13 11:49:10;;;;;;;3.17;2.00;;;;;;;13.96;30.72;100871.09;4957264;28;20027;-66
2021/04/13 11:51:49;;;;;;;3.13;1.88;;;;;;;13.95;29.96;100863.13;4944064;28;20103;-66
2021/04/13 11:54:43;;;;;;;3.53;1.92;;;;;;;13.99;30.36;100864.19;4963614;28;20476;-66
2021/04/13 11:57:17;;;;;;;2.13;1.60;;;;;;;14.01;30.40;100868.28;4953204;28;20062;-66
2021/04/13 12:00:03;;;;;;;2.75;1.80;;;;;;;13.99;30.75;100840.31;4956777;28;20033;-66
2021/04/13 12:02:29;;;;;;;6.70;2.10;;;;;;;14.21;30.79;100851.88;4958671;28;20035;-66
2021/04/13 12:04:57;;;;;;;4.40;2.22;;;;;;;14.32;30.63;100845.19;4957342;28;20079;-67
2021/04/13 12:07:49;;;;;;;5.20;1.90;;;;;;;14.45;30.53;100840.91;4957415;28;20114;-67
2021/04/13 12:10:26;;;;;;;2.33;1.63;;;;;;;14.51;29.95;100836.97;4957267;28;20031;-66
2021/04/13 12:12:53;;;;;;;3.03;1.85;;;;;;;14.51;29.63;100839.72;4956693;28;20397;-67